Time;durP1;ratioP1;P1;durP2;ratioP2;P2;SDS_P1;SDS_P2;PMS_P1;PMS_P2;Temp;Humidity;BMP_temperature;BMP_pressure;BME280_temperature;BME280_humidity;BME280_pressure;Samples;Min_cycle;Max_cycle;Signal;HPM_P1;HPM_P2
2021/04/19 00:01:13;;;;;;;15.35;12.45;;;8.50;58.40;;;;;;6097162;23;20231;-78
2021/04/19 00:03:40;;;;;;;13.77;11.60;;;8.50;58.60;;;;;;6096694;23;20235;-78
2021/04/19 00:06:07;;;;;;;16.40;12.25;;;8.40;58.30;;;;;;6097089;23;20212;-78
2021/04/19 00:08:33;;;;;;;15.10;12.40;;;8.40;58.30;;;;;;6096117;23;20237;-78
2021/04/19 00:11:00;;;;;;;14.90;12.52;;;8.40;58.70;;;;;;6097343;23;20244;-78
2021/04/19 00:13:27;;;;;;;18.73;13.07;;;8.40;59.20;;;;;;6098432;23;20326;-79
2021/04/19 00:15:53;;;;;;;16.65;12.63;;;8.40;59.90;;;;;;6098291;23;20204;-78
2021/04/19 00:18:20;;;;;;;17.63;12.50;;;8.40;59.70;;;;;;6099338;23;20233;-78
2021/04/19 00:20:46;;;;;;;15.88;12.60;;;8.40;59.70;;;;;;6111943;23;20209;-78
2021/04/19 00:23:13;;;;;;;17.20;12.90;;;8.30;59.90;;;;;;6112802;23;20177;-77
2021/04/19 00:25:39;;;;;;;13.77;12.05;;;8.20;60.70;;;;;;6099632;23;20205;-78
2021/04/19 00:28:07;;;;;;;14.63;12.73;;;8.20;60.80;;;;;;6099511;23;20279;-78
2021/04/19 00:30:33;;;;;;;14.20;12.30;;;8.20;60.70;;;;;;6098750;23;20195;-78
2021/04/19 00:33:00;;;;;;;16.08;13.07;;;8.10;60.80;;;;;;6097986;23;20243;-78
2021/04/19 00:35:26;;;;;;;14.93;12.27;;;8.10;60.50;;;;;;6099017;23;20260;-77
2021/04/19 00:37:53;;;;;;;14.90;12.07;;;8.10;60.00;;;;;;6098522;23;20201;-78
2021/04/19 00:40:20;;;;;;;14.73;11.90;;;8.20;59.80;;;;;;6098112;23;20205;-78
2021/04/19 00:42:48;;;;;;;16.33;11.60;;;8.20;59.50;;;;;;6097424;23;20260;-78
2021/04/19 00:45:17;;;;;;;14.60;11.38;;;8.30;59.00;;;;;;6097846;23;20193;-78
2021/04/19 00:47:45;;;;;;;12.80;10.75;;;8.40;58.30;;;;;;6098177;23;20206;-78
2021/04/19 00:50:14;;;;;;;13.80;10.85;;;8.40;58.30;;;;;;6097264;23;20496;-78
2021/04/19 00:52:41;;;;;;;16.30;11.75;;;8.40;58.30;;;;;;6107584;23;20181;-78
2021/04/19 00:55:10;;;;;;;16.33;12.50;;;8.40;58.30;;;;;;6111035;23;20188;-78
2021/04/19 00:57:36;;;;;;;17.30;12.25;;;8.40;58.30;;;;;;6101648;23;20283;-78
2021/04/19 01:00:05;;;;;;;15.65;11.13;;;8.50;58.40;;;;;;6098846;23;20560;-78
2021/04/19 01:02:33;;;;;;;14.63;11.80;;;8.50;57.70;;;;;;6098410;23;20619;-77
2021/04/19 01:04:59;;;;;;;17.52;12.35;;;8.50;57.50;;;;;;6097637;23;20205;-78
2021/04/19 01:07:26;;;;;;;15.18;10.85;;;8.50;57.30;;;;;;6098992;23;20213;-79
2021/04/19 01:09:55;;;;;;;14.20;12.20;;;8.40;57.40;;;;;;6100291;23;20181;-79
2021/04/19 01:12:21;;;;;;;14.25;10.75;;;8.40;57.40;;;;;;6099895;23;20209;-79
2021/04/19 01:14:48;;;;;;;13.02;11.70;;;8.40;57.20;;;;;;6098163;23;20173;-78
2021/04/19 01:17:14;;;;;;;13.40;11.35;;;8.40;56.70;;;;;;6098109;23;20229;-78
2021/04/19 01:19:42;;;;;;;16.65;11.82;;;8.40;56.80;;;;;;6097340;23;20182;-77
2021/04/19 01:22:09;;;;;;;14.00;11.68;;;8.40;56.70;;;;;;6097920;23;20217;-77
2021/04/19 01:24:35;;;;;;;15.38;11.80;;;8.40;56.60;;;;;;6098157;23;20204;-79
2021/04/19 01:27:02;;;;;;;13.00;11.35;;;8.40;56.40;;;;;;6098355;23;20292;-79
2021/04/19 01:29:28;;;;;;;14.65;10.38;;;8.40;56.50;;;;;;6097923;23;20224;-78
2021/04/19 01:31:55;;;;;;;14.07;11.05;;;8.40;56.40;;;;;;6098310;23;20186;-79
2021/04/19 01:34:21;;;;;;;14.70;11.32;;;8.40;56.40;;;;;;6100996;23;20185;-79
2021/04/19 01:36:48;;;;;;;15.07;11.13;;;8.40;56.50;;;;;;6100356;23;20197;-78
2021/04/19 01:39:17;;;;;;;13.63;10.88;;;8.40;56.60;;;;;;6116814;23;20181;-78
2021/04/19 01:41:44;;;;;;;14.90;11.15;;;8.40;56.50;;;;;;6120566;23;20173;-80
2021/04/19 01:44:11;;;;;;;13.13;10.05;;;8.40;56.60;;;;;;6119832;23;20184;-78
2021/04/19 01:46:37;;;;;;;13.18;10.43;;;8.40;56.20;;;;;;6101383;23;20236;-77
2021/04/19 01:49:12;;;;;;;16.00;10.90;;;8.40;56.50;;;;;;6098153;23;20212;-78
2021/04/19 01:51:39;;;;;;;18.17;10.98;;;8.40;56.10;;;;;;6098440;23;20563;-79
2021/04/19 01:54:05;;;;;;;14.05;11.35;;;8.40;55.90;;;;;;6097328;23;20244;-78
2021/04/19 01:56:33;;;;;;;14.90;10.55;;;8.40;56.00;;;;;;6097118;23;20185;-78
2021/04/19 01:59:00;;;;;;;16.70;11.63;;;8.40;56.40;;;;;;6097306;23;20185;-78
2021/04/19 02:01:27;;;;;;;15.00;10.40;;;8.40;56.10;;;;;;6096540;23;20200;-78
2021/04/19 02:04:03;;;;;;;16.17;10.80;;;8.50;55.90;;;;;;6097470;23;20236;-79
2021/04/19 02:06:36;;;;;;;12.98;9.85;;;8.40;55.60;;;;;;6097288;23;20316;-78
2021/04/19 02:09:11;;;;;;;15.32;10.30;;;8.50;55.70;;;;;;6097111;23;20185;-78
2021/04/19 02:11:47;;;;;;;13.43;10.75;;;8.50;55.80;;;;;;6097995;23;20169;-79
2021/04/19 02:14:24;;;;;;;15.70;10.57;;;8.40;55.90;;;;;;6097820;23;20175;-79
2021/04/19 02:16:58;;;;;;;14.65;11.70;;;8.40;56.30;;;;;;6097703;23;20201;-78
2021/04/19 02:19:38;;;;;;;15.20;11.43;;;8.40;56.50;;;;;;6097681;23;20185;-78
2021/04/19 02:22:10;;;;;;;12.90;11.00;;;8.40;56.70;;;;;;6099051;23;20169;-79
2021/04/19 02:24:42;;;;;;;15.95;11.90;;;8.40;56.80;;;;;;6098952;23;20492;-78
2021/04/19 02:27:12;;;;;;;14.25;11.82;;;8.40;56.90;;;;;;6099922;23;20283;-78
2021/04/19 02:29:41;;;;;;;13.30;11.57;;;8.40;57.20;;;;;;6107709;23;20169;-76
2021/04/19 02:32:12;;;;;;;14.27;11.10;;;8.40;56.60;;;;;;6113861;23;20185;-78
2021/04/19 02:34:39;;;;;;;15.55;11.60;;;8.40;56.40;;;;;;6113516;23;20201;-77
2021/04/19 02:37:07;;;;;;;16.83;11.52;;;8.40;56.60;;;;;;6111344;23;20584;-78
2021/04/19 02:39:38;;;;;;;12.73;10.25;;;8.40;57.10;;;;;;6101981;23;20174;-77
2021/04/19 02:42:06;;;;;;;13.35;10.77;;;8.40;57.60;;;;;;6110749;23;20204;-78
2021/04/19 02:44:34;;;;;;;15.45;11.55;;;8.40;57.10;;;;;;6118464;23;20212;-77
2021/04/19 02:47:01;;;;;;;11.63;10.43;;;8.40;57.60;;;;;;6121223;23;20223;-79
2021/04/19 02:49:30;;;;;;;13.65;10.90;;;8.40;57.90;;;;;;6118631;23;20178;-76
2021/04/19 02:52:00;;;;;;;13.20;10.52;;;8.40;58.30;;;;;;6120322;23;20181;-78
2021/04/19 02:54:26;;;;;;;13.40;11.70;;;8.40;58.30;;;;;;6120623;23;20182;-78
2021/04/19 02:56:54;;;;;;;14.57;11.18;;;8.40;58.30;;;;;;6119524;23;20201;-80
2021/04/19 02:59:24;;;;;;;16.70;11.85;;;8.40;58.30;;;;;;6117764;23;20223;-79
2021/04/19 03:01:59;;;;;;;13.77;10.50;;;8.40;59.40;;;;;;6110737;23;20169;-78
2021/04/19 03:04:30;;;;;;;13.40;11.15;;;8.30;60.50;;;;;;6113789;23;20177;-78
2021/04/19 03:07:00;;;;;;;16.00;11.98;;;8.30;60.60;;;;;;6121072;23;20196;-79
2021/04/19 03:09:27;;;;;;;13.70;11.60;;;8.20;61.20;;;;;;6122373;23;20165;-79
2021/04/19 03:11:58;;;;;;;15.75;10.68;;;8.20;62.00;;;;;;6107605;23;20248;-78
2021/04/19 03:14:29;;;;;;;14.27;10.45;;;8.20;62.60;;;;;;6104403;23;20176;-78
2021/04/19 03:17:03;;;;;;;16.83;12.10;;;8.20;62.90;;;;;;6108203;23;20205;-78
2021/04/19 03:19:31;;;;;;;13.80;11.93;;;8.10;62.70;;;;;;6122077;23;20233;-78
2021/04/19 03:22:00;;;;;;;16.45;11.35;;;8.10;63.00;;;;;;6121948;23;20161;-79
2021/04/19 03:24:28;;;;;;;14.75;10.88;;;8.10;63.50;;;;;;6121887;23;20177;-79
2021/04/19 03:26:55;;;;;;;19.38;12.55;;;8.10;63.50;;;;;;6121960;23;20197;-79
2021/04/19 03:29:25;;;;;;;18.67;12.32;;;8.10;63.40;;;;;;6119662;23;20192;-78
2021/04/19 03:31:53;;;;;;;14.95;11.30;;;8.10;64.30;;;;;;6116491;23;20157;-79
2021/04/19 03:34:24;;;;;;;14.80;11.52;;;8.10;64.00;;;;;;6116749;23;20185;-80
2021/04/19 03:36:54;;;;;;;15.45;11.25;;;8.20;63.70;;;;;;6116234;23;20201;-79
2021/04/19 03:39:24;;;;;;;15.98;10.77;;;8.10;64.00;;;;;;6114770;23;20192;-78
2021/04/19 03:41:54;;;;;;;13.95;11.77;;;8.20;64.30;;;;;;6116848;23;20256;-78
2021/04/19 03:44:24;;;;;;;13.23;10.85;;;8.20;63.80;;;;;;6115190;23;20208;-78
2021/04/19 03:46:53;;;;;;;14.50;11.55;;;8.20;63.20;;;;;;6114065;23;20324;-79
2021/04/19 03:49:25;;;;;;;12.32;10.93;;;8.20;63.40;;;;;;6115514;23;20189;-79
2021/04/19 03:51:55;;;;;;;14.52;11.05;;;8.20;63.10;;;;;;6116054;23;20373;-78
2021/04/19 03:54:25;;;;;;;14.20;11.50;;;8.20;62.90;;;;;;6116405;23;20197;-78
2021/04/19 03:56:52;;;;;;;19.30;12.30;;;8.20;63.10;;;;;;6115090;23;20547;-79
2021/04/19 03:59:21;;;;;;;14.70;11.90;;;8.10;64.00;;;;;;6109433;23;20249;-77
2021/04/19 04:01:49;;;;;;;16.90;11.68;;;8.10;64.40;;;;;;6099936;23;20217;-79
2021/04/19 04:04:18;;;;;;;14.25;11.70;;;8.10;65.90;;;;;;6109895;23;20209;-78
2021/04/19 04:06:46;;;;;;;14.65;12.05;;;8.00;66.80;;;;;;6104741;23;20217;-82
2021/04/19 04:09:14;;;;;;;15.95;13.00;;;8.00;67.20;;;;;;6098614;23;20173;-78
2021/04/19 04:11:42;;;;;;;17.35;13.00;;;7.90;68.70;;;;;;6108246;23;20192;-78
2021/04/19 04:14:08;;;;;;;18.27;12.82;;;7.90;69.60;;;;;;6113370;23;20189;-79
2021/04/19 04:16:39;;;;;;;19.10;12.73;;;7.90;71.00;;;;;;6113392;23;20201;-78
2021/04/19 04:19:05;;;;;;;18.35;12.82;;;7.90;71.10;;;;;;6101178;23;20297;-78
2021/04/19 04:21:32;;;;;;;17.40;13.82;;;7.80;72.20;;;;;;6104789;23;20217;-78
2021/04/19 04:23:59;;;;;;;18.75;13.20;;;7.80;72.40;;;;;;6098093;23;20795;-79
2021/04/19 04:26:27;;;;;;;19.17;13.77;;;7.80;72.40;;;;;;6098161;23;20287;-78
2021/04/19 04:28:54;;;;;;;17.75;11.98;;;7.80;73.90;;;;;;6097507;23;20662;-79
2021/04/19 04:31:20;;;;;;;19.80;12.95;;;7.80;73.90;;;;;;6097162;23;20237;-79
2021/04/19 04:33:47;;;;;;;16.60;13.30;;;7.90;73.60;;;;;;6097210;23;20695;-80
2021/04/19 04:36:13;;;;;;;14.00;11.82;;;7.90;74.30;;;;;;6097977;23;20182;-79
2021/04/19 04:38:40;;;;;;;15.82;12.65;;;7.90;74.80;;;;;;6099052;23;20212;-78
2021/04/19 04:41:07;;;;;;;16.00;12.60;;;7.90;74.60;;;;;;6099812;23;20675;-79
2021/04/19 04:43:36;;;;;;;17.50;13.60;;;7.90;75.50;;;;;;6098613;23;20253;-78
2021/04/19 04:46:08;;;;;;;17.98;12.25;;;7.90;75.50;;;;;;6097900;23;20201;-78
2021/04/19 04:48:42;;;;;;;15.27;13.25;;;7.90;75.50;;;;;;6098913;23;20256;-79
2021/04/19 04:51:12;;;;;;;16.00;12.77;;;8.00;75.10;;;;;;6099753;23;20176;-79
2021/04/19 04:53:42;;;;;;;16.08;12.60;;;7.90;75.40;;;;;;6099368;23;20264;-79
2021/04/19 04:56:12;;;;;;;18.58;12.35;;;7.90;75.50;;;;;;6099747;23;20181;-78
2021/04/19 04:58:40;;;;;;;15.30;13.15;;;7.90;75.50;;;;;;6098928;23;20212;-80
2021/04/19 05:01:08;;;;;;;17.40;12.75;;;7.90;75.50;;;;;;6099376;23;20247;-78
2021/04/19 05:03:37;;;;;;;17.33;12.52;;;7.90;75.50;;;;;;6099570;23;20192;-79
2021/04/19 05:06:04;;;;;;;16.85;12.38;;;7.90;75.50;;;;;;6099127;23;20348;-77
2021/04/19 05:08:30;;;;;;;16.90;13.05;;;7.90;75.50;;;;;;6098549;23;20213;-80
2021/04/19 05:10:58;;;;;;;18.83;12.43;;;7.90;76.20;;;;;;6102221;23;20189;-80
2021/04/19 05:13:25;;;;;;;13.70;11.20;;;7.90;75.50;;;;;;6104809;23;20207;-81
2021/04/19 05:15:52;;;;;;;18.55;13.55;;;7.80;75.20;;;;;;6107696;23;20232;-79
2021/04/19 05:18:19;;;;;;;18.38;13.30;;;7.80;74.70;;;;;;6112802;23;20225;-79
2021/04/19 05:20:47;;;;;;;15.98;12.90;;;7.80;75.40;;;;;;6112188;23;20180;-78
2021/04/19 05:23:15;;;;;;;18.83;14.18;;;7.80;75.40;;;;;;6113433;23;20185;-79
2021/04/19 05:25:42;;;;;;;16.27;12.60;;;7.80;75.40;;;;;;6110692;23;20811;-79
2021/04/19 05:28:09;;;;;;;17.27;12.80;;;7.90;75.50;;;;;;6104418;23;20205;-79
2021/04/19 05:30:37;;;;;;;20.92;13.80;;;7.90;76.30;;;;;;6102566;23;20205;-79
2021/04/19 05:33:04;;;;;;;17.15;13.63;;;7.90;75.50;;;;;;6102444;23;20256;-80
2021/04/19 05:35:32;;;;;;;18.67;13.25;;;7.90;75.50;;;;;;6102347;23;20181;-78
2021/04/19 05:37:59;;;;;;;16.48;13.20;;;8.00;75.50;;;;;;6104813;23;20205;-79
2021/04/19 05:40:27;;;;;;;15.80;12.05;;;8.00;75.50;;;;;;6105814;23;20287;-80
2021/04/19 05:42:54;;;;;;;16.48;13.57;;;8.00;75.50;;;;;;6102888;23;20181;-79
2021/04/19 05:45:20;;;;;;;14.85;12.60;;;8.00;75.50;;;;;;6106769;23;20208;-79
2021/04/19 05:47:49;;;;;;;15.90;12.27;;;8.00;75.30;;;;;;6117340;23;20680;-80
2021/04/19 05:50:16;;;;;;;14.45;12.45;;;8.00;75.50;;;;;;6112342;23;20161;-77
2021/04/19 05:52:43;;;;;;;13.43;11.30;;;8.00;75.50;;;;;;6115024;23;20177;-78
2021/04/19 05:55:11;;;;;;;15.25;11.80;;;8.00;75.50;;;;;;6119511;23;20185;-78
2021/04/19 05:57:45;;;;;;;17.42;13.52;;;8.00;75.50;;;;;;6113622;23;20663;-77
2021/04/19 06:00:19;;;;;;;18.10;12.50;;;8.00;75.50;;;;;;6104227;23;20170;-79
2021/04/19 06:02:57;;;;;;;17.48;12.82;;;8.00;74.70;;;;;;6109972;23;20201;-80
2021/04/19 06:05:29;;;;;;;17.65;13.55;;;8.00;74.30;;;;;;6110159;23;20213;-78
2021/04/19 06:08:02;;;;;;;15.98;12.50;;;8.00;73.30;;;;;;6109947;23;20213;-79
2021/04/19 06:10:36;;;;;;;15.88;12.50;;;7.90;73.10;;;;;;6107165;23;20182;-78
2021/04/19 06:13:03;;;;;;;16.45;12.60;;;7.90;73.60;;;;;;6100887;23;20239;-79
2021/04/19 06:15:30;;;;;;;16.58;12.93;;;7.90;73.60;;;;;;6101805;23;20193;-78
2021/04/19 06:18:00;;;;;;;17.08;13.23;;;7.90;72.60;;;;;;6116495;23;20384;-76
2021/04/19 06:20:27;;;;;;;18.17;13.68;;;7.90;72.70;;;;;;6121408;23;20184;-78
2021/04/19 06:22:54;;;;;;;16.00;13.15;;;7.90;73.00;;;;;;6103553;23;20185;-79
2021/04/19 06:25:23;;;;;;;19.05;13.55;;;7.90;73.20;;;;;;6102047;23;20209;-80
2021/04/19 06:27:58;;;;;;;15.20;12.45;;;8.00;73.20;;;;;;6103575;23;20212;-78
2021/04/19 06:30:29;;;;;;;16.98;12.45;;;8.10;72.50;;;;;;6110491;23;20170;-80
2021/04/19 06:32:57;;;;;;;18.08;13.57;;;8.00;72.30;;;;;;6111928;23;20662;-77
2021/04/19 06:35:24;;;;;;;17.48;13.45;;;8.00;73.20;;;;;;6110095;23;20256;-76
2021/04/19 06:37:51;;;;;;;18.52;13.48;;;8.00;73.70;;;;;;6111085;23;20209;-78
2021/04/19 06:40:18;;;;;;;17.20;13.07;;;8.00;73.00;;;;;;6101592;23;20189;-77
2021/04/19 06:42:45;;;;;;;19.05;12.73;;;8.10;73.50;;;;;;6096241;23;20647;-79
2021/04/19 06:45:14;;;;;;;19.63;14.18;;;8.10;73.30;;;;;;6095506;23;20608;-79
2021/04/19 06:47:42;;;;;;;22.50;16.02;;;8.10;73.80;;;;;;6096281;23;20572;-76
2021/04/19 06:50:11;;;;;;;24.08;14.63;;;8.10;74.20;;;;;;6096450;23;20185;-77
2021/04/19 06:52:39;;;;;;;20.33;14.50;;;8.10;75.10;;;;;;6095877;23;20184;-78
2021/04/19 06:55:07;;;;;;;19.98;13.35;;;8.10;74.90;;;;;;6097053;23;20177;-77
2021/04/19 06:57:40;;;;;;;18.20;13.75;;;8.20;75.70;;;;;;6096437;23;20224;-78
2021/04/19 07:00:07;;;;;;;21.52;13.90;;;8.30;74.50;;;;;;6097353;23;20632;-75
2021/04/19 07:02:42;;;;;;;20.30;13.93;;;8.30;74.00;;;;;;6095584;23;20189;-77
2021/04/19 07:05:12;;;;;;;20.85;16.10;;;8.30;74.80;;;;;;6096274;23;20181;-77
2021/04/19 07:07:47;;;;;;;20.35;15.07;;;8.20;75.40;;;;;;6097290;23;20552;-78
2021/04/19 07:10:14;;;;;;;19.58;14.77;;;8.30;75.80;;;;;;6097198;23;20477;-79
2021/04/19 07:12:44;;;;;;;18.88;14.63;;;8.30;75.80;;;;;;6096954;23;20309;-78
2021/04/19 07:15:12;;;;;;;20.55;14.13;;;8.30;75.80;;;;;;6097617;23;20192;-78
2021/04/19 07:17:39;;;;;;;19.10;14.93;;;8.30;75.80;;;;;;6108470;23;20260;-78
2021/04/19 07:20:07;;;;;;;20.17;14.48;;;8.30;75.80;;;;;;6106139;23;20188;-77
2021/04/19 07:22:34;;;;;;;16.67;13.20;;;8.40;75.90;;;;;;6108145;23;20185;-76
2021/04/19 07:25:01;;;;;;;20.10;14.20;;;8.40;75.90;;;;;;6107259;23;20472;-77
2021/04/19 07:27:29;;;;;;;18.50;14.10;;;8.50;75.00;;;;;;6101302;23;20205;-77
2021/04/19 07:29:55;;;;;;;20.42;15.13;;;8.50;74.50;;;;;;6099923;23;20212;-77
2021/04/19 07:32:33;;;;;;;20.48;14.15;;;8.50;74.60;;;;;;6099691;23;20511;-78
2021/04/19 07:35:00;;;;;;;20.20;15.07;;;8.50;75.10;;;;;;6105487;23;20172;-78
2021/04/19 07:37:28;;;;;;;21.15;15.13;;;8.60;75.20;;;;;;6107511;23;20205;-79
2021/04/19 07:39:56;;;;;;;18.92;14.05;;;8.70;74.20;;;;;;6108310;23;20216;-78
2021/04/19 07:42:23;;;;;;;23.33;16.23;;;8.70;74.00;;;;;;6103793;23;20551;-79
2021/04/19 07:44:51;;;;;;;24.27;14.63;;;8.70;72.80;;;;;;6103753;23;20223;-77
2021/04/19 07:47:30;;;;;;;21.58;14.07;;;8.70;73.10;;;;;;6109673;23;20205;-79
2021/04/19 07:49:59;;;;;;;19.98;14.88;;;8.70;72.90;;;;;;6111021;23;20184;-79
2021/04/19 07:52:27;;;;;;;22.52;14.45;;;8.70;72.70;;;;;;6114049;23;20212;-80
2021/04/19 07:55:20;;;;;;;24.50;14.55;;;8.50;73.60;;;;;;6111683;23;20185;-80
2021/04/19 07:57:47;;;;;;;20.33;14.45;;;8.50;74.90;;;;;;6084826;23;20218;-78
2021/04/19 08:00:24;;;;;;;16.95;13.85;;;8.50;75.60;;;;;;6099293;23;20184;-78
2021/04/19 08:02:57;;;;;;;20.20;15.88;;;8.70;74.90;;;;;;6098665;23;20169;-77
2021/04/19 08:05:31;;;;;;;19.80;15.85;;;8.70;73.50;;;;;;6105033;23;20245;-77
2021/04/19 08:07:58;;;;;;;20.13;14.65;;;8.60;73.00;;;;;;6101889;23;20268;-78
2021/04/19 08:10:25;;;;;;;19.90;14.60;;;8.60;73.80;;;;;;6105309;23;20184;-81
2021/04/19 08:13:02;;;;;;;24.13;14.15;;;8.60;74.00;;;;;;6106137;23;20185;-79
2021/04/19 08:15:28;;;;;;;23.55;14.48;;;8.50;74.10;;;;;;6104911;23;20172;-77
2021/04/19 08:18:00;;;;;;;22.48;15.32;;;8.50;74.50;;;;;;6101238;23;20212;-77
2021/04/19 08:20:27;;;;;;;18.95;14.30;;;8.60;74.50;;;;;;6104034;23;20243;-79
2021/04/19 08:23:04;;;;;;;20.35;15.18;;;8.60;73.60;;;;;;6104436;23;20185;-77
2021/04/19 08:25:45;;;;;;;22.70;14.52;;;8.60;74.40;;;;;;6107294;23;20189;-78
2021/04/19 08:28:14;;;;;;;22.10;14.93;;;8.60;74.00;;;;;;6106776;23;20270;-78
2021/04/19 08:30:43;;;;;;;18.70;14.60;;;8.60;74.30;;;;;;6110976;23;20177;-78
2021/04/19 08:33:11;;;;;;;18.77;14.32;;;8.60;73.70;;;;;;6112620;23;20177;-80
2021/04/19 08:35:38;;;;;;;21.15;15.02;;;8.60;74.50;;;;;;6110197;23;20244;-78
2021/04/19 08:38:06;;;;;;;24.58;16.48;;;8.70;74.90;;;;;;6106075;23;20201;-77
2021/04/19 08:40:35;;;;;;;20.25;15.30;;;8.60;76.00;;;;;;6110563;23;20185;-79
2021/04/19 08:43:03;;;;;;;25.05;15.52;;;8.60;76.00;;;;;;6109578;23;20185;-79
2021/04/19 08:45:30;;;;;;;24.42;15.85;;;8.70;76.80;;;;;;6103690;23;20197;-80
2021/04/19 08:47:56;;;;;;;24.83;15.50;;;8.70;76.90;;;;;;6106133;23;20229;-78
2021/04/19 08:50:25;;;;;;;19.23;15.45;;;8.60;76.50;;;;;;6106665;23;20181;-79
2021/04/19 08:52:53;;;;;;;19.15;14.48;;;8.60;76.50;;;;;;6103965;23;20265;-79
2021/04/19 08:55:20;;;;;;;18.98;15.10;;;8.50;76.00;;;;;;6099288;23;20188;-78
2021/04/19 08:57:49;;;;;;;19.08;15.27;;;8.50;77.90;;;;;;6100335;23;20204;-79
2021/04/19 09:00:18;;;;;;;19.02;15.35;;;8.40;78.30;;;;;;6100559;23;20547;-78
2021/04/19 09:02:45;;;;;;;21.95;15.60;;;8.40;79.20;;;;;;6103353;23;20572;-78
2021/04/19 09:05:14;;;;;;;21.38;15.00;;;8.40;78.90;;;;;;6113829;23;20173;-79
2021/04/19 09:07:42;;;;;;;18.02;14.77;;;8.40;78.40;;;;;;6119693;23;20232;-80
2021/04/19 09:10:11;;;;;;;18.83;14.80;;;8.50;79.10;;;;;;6122868;23;20185;-79
2021/04/19 09:12:37;;;;;;;17.25;13.50;;;8.70;78.50;;;;;;6121981;23;20181;-77
2021/04/19 09:15:17;;;;;;;15.95;12.95;;;8.80;76.90;;;;;;6117202;23;20181;-79
2021/04/19 09:18:00;;;;;;;22.80;13.27;;;9.00;74.80;;;;;;6107696;23;20200;-77
2021/04/19 09:20:44;;;;;;;25.67;14.27;;;9.10;72.90;;;;;;6099338;23;20201;-78
2021/04/19 09:23:25;;;;;;;17.52;12.73;;;9.10;71.30;;;;;;6099948;23;20181;-78
2021/04/19 09:25:53;;;;;;;18.13;12.18;;;9.30;70.90;;;;;;6099992;23;20185;-78
2021/04/19 09:28:56;;;;;;;15.57;12.13;;;9.40;68.60;;;;;;6098810;23;20228;-78
2021/04/19 09:31:58;;;;;;;15.73;12.13;;;9.60;68.20;;;;;;6103259;23;20175;-81
2021/04/19 09:34:40;;;;;;;25.08;13.35;;;9.90;67.50;;;;;;6096008;23;20505;-78
2021/04/19 09:37:07;;;;;;;20.00;12.00;;;10.00;63.10;;;;;;6104657;23;20229;-78
2021/04/19 09:40:02;;;;;;;14.38;11.63;;;10.10;61.60;;;;;;6108144;23;20177;-79
2021/04/19 09:43:04;;;;;;;22.52;11.23;;;10.30;60.90;;;;;;6101261;23;20367;-81
2021/04/19 09:46:04;;;;;;;15.38;11.45;;;10.60;59.10;;;;;;6101531;23;20185;-77
2021/04/19 09:48:45;;;;;;;15.98;12.13;;;10.80;57.30;;;;;;6112452;23;20212;-77
2021/04/19 09:51:16;;;;;;;16.05;12.75;;;10.90;55.70;;;;;;6111021;23;20165;-79
2021/04/19 09:53:50;;;;;;;16.00;11.88;;;10.90;55.60;;;;;;6114064;23;20215;-78
2021/04/19 09:56:21;;;;;;;18.45;12.10;;;10.90;54.80;;;;;;6112234;23;20647;-78
2021/04/19 09:58:47;;;;;;;14.02;11.52;;;11.00;54.60;;;;;;6111010;23;20224;-77
2021/04/19 10:01:14;;;;;;;16.75;12.35;;;11.20;53.80;;;;;;6112466;23;20734;-78
2021/04/19 10:03:46;;;;;;;15.70;12.02;;;11.40;52.10;;;;;;6105736;23;20209;-78
2021/04/19 10:06:16;;;;;;;17.15;12.20;;;11.70;52.70;;;;;;6099111;23;20669;-78
2021/04/19 10:08:43;;;;;;;17.65;12.07;;;11.90;51.00;;;;;;6097930;23;20220;-81
2021/04/19 10:11:13;;;;;;;13.77;11.30;;;11.90;50.30;;;;;;6100702;23;20205;-77
2021/04/19 10:13:39;;;;;;;20.42;12.63;;;11.80;50.90;;;;;;6099008;23;20233;-78
2021/04/19 10:16:08;;;;;;;13.90;12.25;;;12.10;51.20;;;;;;6101022;23;20178;-79
2021/04/19 10:18:36;;;;;;;13.85;12.27;;;12.10;50.60;;;;;;6098401;23;20256;-78
2021/04/19 10:21:04;;;;;;;15.50;12.52;;;12.20;48.90;;;;;;6099253;23;20196;-77
2021/04/19 10:23:38;;;;;;;18.08;13.98;;;12.30;49.10;;;;;;6097705;23;20177;-78
2021/04/19 10:26:05;;;;;;;19.80;13.10;;;12.60;48.50;;;;;;6099783;23;20209;-79
2021/04/19 10:28:35;;;;;;;15.70;12.05;;;12.70;46.70;;;;;;6102206;23;20236;-79
2021/04/19 10:31:12;;;;;;;13.52;12.02;;;12.70;46.60;;;;;;6100758;23;20185;-78
2021/04/19 10:33:39;;;;;;;17.58;13.15;;;12.70;47.50;;;;;;6104535;23;20180;-78
2021/04/19 10:36:16;;;;;;;19.30;14.73;;;12.90;46.70;;;;;;6103816;23;20182;-78
2021/04/19 10:38:45;;;;;;;16.40;12.93;;;13.10;46.20;;;;;;6106607;23;20663;-79
2021/04/19 10:41:11;;;;;;;17.85;12.32;;;13.30;45.30;;;;;;6106432;23;20185;-80
2021/04/19 10:43:38;;;;;;;15.00;12.40;;;13.50;44.50;;;;;;6109614;23;20212;-79
2021/04/19 10:46:21;;;;;;;17.73;13.27;;;13.70;43.00;;;;;;6115629;23;20200;-78
2021/04/19 10:48:48;;;;;;;19.73;13.48;;;13.30;42.60;;;;;;6121919;23;20225;-78
2021/04/19 10:51:17;;;;;;;17.25;13.75;;;13.30;42.60;;;;;;6120476;23;20197;-78
2021/04/19 10:53:44;;;;;;;16.77;13.05;;;13.50;42.80;;;;;;6118123;23;20213;-79
2021/04/19 10:56:14;;;;;;;20.00;13.15;;;13.80;42.10;;;;;;6119826;23;20173;-78
2021/04/19 10:58:41;;;;;;;17.67;14.05;;;13.90;40.80;;;;;;6120560;23;20288;-78
2021/04/19 11:01:08;;;;;;;19.88;14.75;;;13.50;41.50;;;;;;6119653;23;20189;-78
2021/04/19 11:03:36;;;;;;;17.42;14.32;;;13.60;42.90;;;;;;6114390;23;20655;-78
2021/04/19 11:06:04;;;;;;;20.77;13.90;;;13.90;41.60;;;;;;6110673;23;20221;-76
2021/04/19 11:08:53;;;;;;;16.67;13.10;;;13.80;40.40;;;;;;6116925;23;20193;-79
2021/04/19 11:11:24;;;;;;;17.20;13.07;;;13.90;40.00;;;;;;6121679;23;20157;-78
2021/04/19 11:13:52;;;;;;;17.42;13.40;;;14.00;39.70;;;;;;6120715;23;20220;-80
2021/04/19 11:16:20;;;;;;;17.65;12.90;;;14.20;39.60;;;;;;6119773;23;20185;-78
2021/04/19 11:18:46;;;;;;;16.73;12.93;;;14.30;39.10;;;;;;6119270;23;20205;-80
2021/04/19 11:21:28;;;;;;;16.90;12.35;;;14.70;38.20;;;;;;6113665;23;20189;-78
2021/04/19 11:24:13;;;;;;;16.90;13.45;;;14.70;37.00;;;;;;6105532;23;20169;-78
2021/04/19 11:26:40;;;;;;;18.17;12.38;;;14.90;37.50;;;;;;6103792;23;20204;-80
2021/04/19 11:29:08;;;;;;;17.10;14.02;;;15.20;36.60;;;;;;6104399;23;20185;-79
2021/04/19 11:31:43;;;;;;;20.67;12.75;;;14.90;36.70;;;;;;6103707;23;20208;-78
2021/04/19 11:34:12;;;;;;;16.37;12.87;;;14.80;37.70;;;;;;6109211;23;20192;-76
2021/04/19 11:36:40;;;;;;;24.47;13.50;;;15.20;35.10;;;;;;6109542;23;20384;-78
2021/04/19 11:39:16;;;;;;;14.20;12.70;;;14.60;37.50;;;;;;6118931;23;20384;-79
2021/04/19 11:41:44;;;;;;;15.27;11.77;;;14.80;36.60;;;;;;6113106;23;20444;-77
2021/04/19 11:44:11;;;;;;;16.05;11.98;;;15.30;35.20;;;;;;6116383;23;20185;-77
2021/04/19 11:46:41;;;;;;;15.27;11.60;;;15.20;35.50;;;;;;6114723;23;20216;-81
2021/04/19 11:49:13;;;;;;;16.35;12.63;;;15.40;34.50;;;;;;6110903;23;20177;-82
2021/04/19 11:51:40;;;;;;;15.00;11.80;;;15.40;34.50;;;;;;6109151;23;20235;-81
2021/04/19 11:54:07;;;;;;;17.37;11.23;;;15.20;34.30;;;;;;6111480;23;20424;-82
2021/04/19 11:56:35;;;;;;;16.45;12.13;;;15.30;34.40;;;;;;6110270;23;20513;-80
2021/04/19 11:59:02;;;;;;;17.23;13.38;;;15.20;34.40;;;;;;6114922;23;20204;-83
2021/04/19 12:01:29;;;;;;;18.77;11.32;;;15.20;34.30;;;;;;6114710;23;20177;-80
2021/04/19 12:03:56;;;;;;;15.65;12.60;;;15.20;34.30;;;;;;6107302;23;20204;-81
2021/04/19 12:06:24;;;;;;;16.17;12.55;;;15.00;34.30;;;;;;6109031;23;20204;-82
2021/04/19 12:08:51;;;;;;;17.05;12.65;;;14.90;34.70;;;;;;6107558;23;20189;-80
2021/04/19 12:11:21;;;;;;;18.27;11.83;;;14.90;34.20;;;;;;6111943;23;20181;-82
2021/04/19 12:13:49;;;;;;;14.53;12.30;;;15.10;34.30;;;;;;6111674;23;20417;-82
2021/04/19 12:16:16;;;;;;;15.23;11.87;;;15.50;34.60;;;;;;6110840;23;20420;-85
2021/04/19 12:18:42;;;;;;;16.07;12.07;;;15.70;34.20;;;;;;6113056;23;20411;-84
2021/04/19 12:21:09;;;;;;;15.05;12.32;;;15.70;34.30;;;;;;6112793;23;20376;-83
2021/04/19 12:23:36;;;;;;;16.03;12.40;;;15.60;33.70;;;;;;6110635;23;20256;-85
2021/04/19 12:26:03;;;;;;;15.85;12.00;;;15.20;34.30;;;;;;6111102;23;20431;-85
2021/04/19 12:28:30;;;;;;;15.63;13.10;;;14.80;33.90;;;;;;6112597;23;20260;-81
2021/04/19 12:30:57;;;;;;;18.60;12.85;;;14.40;34.30;;;;;;6114778;23;20184;-82
2021/04/19 12:33:24;;;;;;;16.15;13.07;;;14.30;35.30;;;;;;6116193;23;20181;-82
2021/04/19 12:35:50;;;;;;;16.42;12.85;;;14.50;35.00;;;;;;6112420;23;20196;-83
2021/04/19 12:38:17;;;;;;;18.75;13.20;;;14.60;34.60;;;;;;6112323;23;20202;-83
2021/04/19 12:40:43;;;;;;;19.73;12.70;;;14.80;33.90;;;;;;6110929;23;20178;-83
2021/04/19 12:43:11;;;;;;;16.08;12.90;;;14.90;34.00;;;;;;6114462;23;20471;-81
2021/04/19 12:45:38;;;;;;;17.25;12.52;;;14.70;33.80;;;;;;6118942;23;20185;-83